sensor_id;sensor_type;location;lat;lon;timestamp;P1;durP1;ratioP1;P2;durP2;ratioP2
34697;SDS011;61391;50.922;6.928;2023-04-29T00:01:08;1.20;;;1.08;;
34697;SDS011;61391;50.922;6.928;2023-04-29T00:03:34;1.70;;;0.52;;
34697;SDS011;61391;50.922;6.928;2023-04-29T00:06:00;1.08;;;0.95;;
34697;SDS011;61391;50.922;6.928;2023-04-29T00:08:26;1.92;;;1.58;;
34697;SDS011;61391;50.922;6.928;2023-04-29T00:10:51;0.82;;;0.82;;
34697;SDS011;61391;50.922;6.928;2023-04-29T00:13:17;0.98;;;0.93;;
34697;SDS011;61391;50.922;6.928;2023-04-29T00:15:43;1.00;;;0.68;;
34697;SDS011;61391;50.922;6.928;2023-04-29T00:18:08;1.25;;;0.68;;
34697;SDS011;61391;50.922;6.928;2023-04-29T00:20:35;1.00;;;0.77;;
34697;SDS011;61391;50.922;6.928;2023-04-29T00:23:02;3.30;;;1.13;;
34697;SDS011;61391;50.922;6.928;2023-04-29T00:25:28;1.00;;;0.90;;
34697;SDS011;61391;50.922;6.928;2023-04-29T00:27:57;0.90;;;0.90;;
34697;SDS011;61391;50.922;6.928;2023-04-29T00:30:26;1.52;;;1.00;;
34697;SDS011;61391;50.922;6.928;2023-04-29T00:32:54;1.02;;;0.93;;
34697;SDS011;61391;50.922;6.928;2023-04-29T00:35:25;3.38;;;1.23;;
34697;SDS011;61391;50.922;6.928;2023-04-29T00:37:50;1.15;;;1.02;;
34697;SDS011;61391;50.922;6.928;2023-04-29T00:40:16;2.63;;;1.88;;
34697;SDS011;61391;50.922;6.928;2023-04-29T00:42:42;0.40;;;0.40;;
34697;SDS011;61391;50.922;6.928;2023-04-29T00:45:09;1.65;;;1.23;;
34697;SDS011;61391;50.922;6.928;2023-04-29T00:47:37;4.32;;;1.13;;
34697;SDS011;61391;50.922;6.928;2023-04-29T00:50:06;1.90;;;1.65;;
34697;SDS011;61391;50.922;6.928;2023-04-29T00:52:32;2.08;;;1.33;;
34697;SDS011;61391;50.922;6.928;2023-04-29T00:55:00;1.42;;;0.93;;
34697;SDS011;61391;50.922;6.928;2023-04-29T00:57:26;1.35;;;0.77;;
34697;SDS011;61391;50.922;6.928;2023-04-29T00:59:54;1.27;;;1.25;;
34697;SDS011;61391;50.922;6.928;2023-04-29T01:02:22;0.43;;;0.40;;
34697;SDS011;61391;50.922;6.928;2023-04-29T01:04:50;2.35;;;2.15;;
34697;SDS011;61391;50.922;6.928;2023-04-29T01:07:25;1.45;;;0.63;;
34697;SDS011;61391;50.922;6.928;2023-04-29T01:10:08;1.02;;;0.93;;
34697;SDS011;61391;50.922;6.928;2023-04-29T01:15:20;1.45;;;1.35;;
34697;SDS011;61391;50.922;6.928;2023-04-29T01:17:54;0.68;;;0.68;;
34697;SDS011;61391;50.922;6.928;2023-04-29T01:20:45;1.55;;;1.45;;
34697;SDS011;61391;50.922;6.928;2023-04-29T01:23:11;0.95;;;0.95;;
34697;SDS011;61391;50.922;6.928;2023-04-29T01:25:40;0.75;;;0.73;;
34697;SDS011;61391;50.922;6.928;2023-04-29T01:28:14;1.42;;;1.05;;
34697;SDS011;61391;50.922;6.928;2023-04-29T01:31:09;1.40;;;0.75;;
34697;SDS011;61391;50.922;6.928;2023-04-29T01:39:14;2.60;;;1.03;;
34697;SDS011;61391;50.922;6.928;2023-04-29T01:41:56;1.75;;;1.00;;
34697;SDS011;61391;50.922;6.928;2023-04-29T01:44:28;1.55;;;1.00;;
34697;SDS011;61391;50.922;6.928;2023-04-29T01:47:00;3.47;;;1.50;;
34697;SDS011;61391;50.922;6.928;2023-04-29T01:49:26;1.25;;;1.23;;
34697;SDS011;61391;50.922;6.928;2023-04-29T01:52:01;3.83;;;1.48;;
34697;SDS011;61391;50.922;6.928;2023-04-29T01:54:29;5.75;;;1.90;;
34697;SDS011;61391;50.922;6.928;2023-04-29T01:56:59;2.50;;;1.83;;
34697;SDS011;61391;50.922;6.928;2023-04-29T01:59:24;1.55;;;1.45;;
34697;SDS011;61391;50.922;6.928;2023-04-29T02:01:56;1.17;;;1.02;;
34697;SDS011;61391;50.922;6.928;2023-04-29T02:04:25;1.70;;;1.23;;
34697;SDS011;61391;50.922;6.928;2023-04-29T02:06:53;1.80;;;1.25;;
34697;SDS011;61391;50.922;6.928;2023-04-29T02:09:19;1.23;;;1.15;;
34697;SDS011;61391;50.922;6.928;2023-04-29T02:11:46;0.77;;;0.77;;
34697;SDS011;61391;50.922;6.928;2023-04-29T02:14:15;2.90;;;1.52;;
34697;SDS011;61391;50.922;6.928;2023-04-29T02:16:45;3.13;;;2.35;;
34697;SDS011;61391;50.922;6.928;2023-04-29T02:19:12;2.10;;;1.90;;
34697;SDS011;61391;50.922;6.928;2023-04-29T02:21:38;1.70;;;1.60;;
34697;SDS011;61391;50.922;6.928;2023-04-29T02:24:05;6.22;;;3.67;;
34697;SDS011;61391;50.922;6.928;2023-04-29T02:26:31;4.50;;;2.55;;
34697;SDS011;61391;50.922;6.928;2023-04-29T02:28:58;3.35;;;1.13;;
34697;SDS011;61391;50.922;6.928;2023-04-29T02:31:25;7.20;;;2.90;;
34697;SDS011;61391;50.922;6.928;2023-04-29T02:33:52;3.08;;;2.30;;
34697;SDS011;61391;50.922;6.928;2023-04-29T02:36:20;3.67;;;2.92;;
34697;SDS011;61391;50.922;6.928;2023-04-29T02:38:48;6.55;;;1.45;;
34697;SDS011;61391;50.922;6.928;2023-04-29T02:41:16;2.65;;;2.45;;
34697;SDS011;61391;50.922;6.928;2023-04-29T02:43:45;3.97;;;2.97;;
34697;SDS011;61391;50.922;6.928;2023-04-29T02:46:11;4.18;;;3.60;;
34697;SDS011;61391;50.922;6.928;2023-04-29T02:48:38;2.60;;;2.13;;
34697;SDS011;61391;50.922;6.928;2023-04-29T02:51:05;4.82;;;3.30;;
34697;SDS011;61391;50.922;6.928;2023-04-29T02:53:30;3.95;;;1.77;;
34697;SDS011;61391;50.922;6.928;2023-04-29T02:55:56;8.70;;;3.50;;
34697;SDS011;61391;50.922;6.928;2023-04-29T02:58:22;7.47;;;3.00;;
34697;SDS011;61391;50.922;6.928;2023-04-29T03:00:49;3.72;;;1.83;;
34697;SDS011;61391;50.922;6.928;2023-04-29T03:03:17;9.00;;;5.10;;
34697;SDS011;61391;50.922;6.928;2023-04-29T03:05:43;3.20;;;2.75;;
34697;SDS011;61391;50.922;6.928;2023-04-29T03:08:09;5.38;;;2.63;;
34697;SDS011;61391;50.922;6.928;2023-04-29T03:10:35;6.88;;;4.63;;
34697;SDS011;61391;50.922;6.928;2023-04-29T03:13:01;5.13;;;2.88;;
34697;SDS011;61391;50.922;6.928;2023-04-29T03:15:28;3.15;;;2.55;;
34697;SDS011;61391;50.922;6.928;2023-04-29T03:17:54;8.77;;;3.78;;
34697;SDS011;61391;50.922;6.928;2023-04-29T03:20:19;3.45;;;2.42;;
34697;SDS011;61391;50.922;6.928;2023-04-29T03:22:45;9.82;;;2.17;;
34697;SDS011;61391;50.922;6.928;2023-04-29T03:25:12;4.15;;;3.05;;
34697;SDS011;61391;50.922;6.928;2023-04-29T03:27:41;5.63;;;3.15;;
34697;SDS011;61391;50.922;6.928;2023-04-29T03:30:09;4.22;;;2.65;;
34697;SDS011;61391;50.922;6.928;2023-04-29T03:32:36;4.25;;;3.08;;
34697;SDS011;61391;50.922;6.928;2023-04-29T03:35:02;4.50;;;2.38;;
34697;SDS011;61391;50.922;6.928;2023-04-29T03:37:27;6.25;;;3.13;;
34697;SDS011;61391;50.922;6.928;2023-04-29T03:39:56;10.60;;;3.40;;
34697;SDS011;61391;50.922;6.928;2023-04-29T03:42:24;7.95;;;3.53;;
34697;SDS011;61391;50.922;6.928;2023-04-29T03:44:51;8.70;;;4.93;;
34697;SDS011;61391;50.922;6.928;2023-04-29T03:54:01;8.48;;;3.97;;
34697;SDS011;61391;50.922;6.928;2023-04-29T03:56:27;14.45;;;4.93;;
34697;SDS011;61391;50.922;6.928;2023-04-29T03:58:53;7.28;;;3.28;;
34697;SDS011;61391;50.922;6.928;2023-04-29T04:01:18;6.32;;;2.90;;
34697;SDS011;61391;50.922;6.928;2023-04-29T04:03:44;8.52;;;4.30;;
34697;SDS011;61391;50.922;6.928;2023-04-29T04:06:10;6.65;;;3.63;;
34697;SDS011;61391;50.922;6.928;2023-04-29T04:08:35;7.18;;;4.32;;
34697;SDS011;61391;50.922;6.928;2023-04-29T04:11:01;4.72;;;3.05;;
34697;SDS011;61391;50.922;6.928;2023-04-29T04:13:30;5.13;;;2.75;;
34697;SDS011;61391;50.922;6.928;2023-04-29T04:15:56;6.10;;;2.65;;
34697;SDS011;61391;50.922;6.928;2023-04-29T04:18:22;2.47;;;2.35;;
34697;SDS011;61391;50.922;6.928;2023-04-29T04:20:48;8.77;;;3.38;;
34697;SDS011;61391;50.922;6.928;2023-04-29T04:23:13;4.10;;;3.28;;
34697;SDS011;61391;50.922;6.928;2023-04-29T04:25:48;11.13;;;2.88;;
34697;SDS011;61391;50.922;6.928;2023-04-29T04:28:14;4.63;;;3.35;;
34697;SDS011;61391;50.922;6.928;2023-04-29T04:30:40;12.20;;;3.08;;
34697;SDS011;61391;50.922;6.928;2023-04-29T04:33:06;6.65;;;3.47;;
34697;SDS011;61391;50.922;6.928;2023-04-29T04:35:32;11.20;;;4.20;;
34697;SDS011;61391;50.922;6.928;2023-04-29T04:37:58;3.97;;;2.45;;
34697;SDS011;61391;50.922;6.928;2023-04-29T04:40:23;2.80;;;2.20;;
34697;SDS011;61391;50.922;6.928;2023-04-29T04:42:49;9.15;;;3.92;;
34697;SDS011;61391;50.922;6.928;2023-04-29T04:45:14;5.78;;;3.45;;
34697;SDS011;61391;50.922;6.928;2023-04-29T04:47:40;10.25;;;3.83;;
34697;SDS011;61391;50.922;6.928;2023-04-29T04:50:06;7.53;;;3.35;;
34697;SDS011;61391;50.922;6.928;2023-04-29T04:52:32;7.00;;;4.25;;
34697;SDS011;61391;50.922;6.928;2023-04-29T04:54:58;7.22;;;4.70;;
34697;SDS011;61391;50.922;6.928;2023-04-29T04:57:24;6.30;;;2.72;;
34697;SDS011;61391;50.922;6.928;2023-04-29T04:59:50;6.90;;;2.88;;
34697;SDS011;61391;50.922;6.928;2023-04-29T05:02:15;4.18;;;2.67;;
34697;SDS011;61391;50.922;6.928;2023-04-29T05:04:41;5.28;;;3.70;;
34697;SDS011;61391;50.922;6.928;2023-04-29T05:07:07;3.97;;;2.42;;
34697;SDS011;61391;50.922;6.928;2023-04-29T05:09:32;10.70;;;2.85;;
34697;SDS011;61391;50.922;6.928;2023-04-29T05:11:58;5.15;;;1.90;;
34697;SDS011;61391;50.922;6.928;2023-04-29T05:14:24;8.15;;;3.72;;
34697;SDS011;61391;50.922;6.928;2023-04-29T05:16:50;2.97;;;2.25;;
34697;SDS011;61391;50.922;6.928;2023-04-29T05:19:16;8.95;;;2.83;;
34697;SDS011;61391;50.922;6.928;2023-04-29T05:21:43;5.25;;;2.92;;
34697;SDS011;61391;50.922;6.928;2023-04-29T05:24:08;8.88;;;4.30;;
34697;SDS011;61391;50.922;6.928;2023-04-29T05:26:34;2.63;;;2.40;;
34697;SDS011;61391;50.922;6.928;2023-04-29T05:29:00;1.58;;;1.48;;
34697;SDS011;61391;50.922;6.928;2023-04-29T05:31:25;2.35;;;1.90;;
34697;SDS011;61391;50.922;6.928;2023-04-29T05:33:52;2.83;;;2.13;;
34697;SDS011;61391;50.922;6.928;2023-04-29T05:36:18;3.22;;;2.47;;
34697;SDS011;61391;50.922;6.928;2023-04-29T05:42:06;4.85;;;2.50;;
34697;SDS011;61391;50.922;6.928;2023-04-29T05:44:31;6.40;;;2.55;;
34697;SDS011;61391;50.922;6.928;2023-04-29T05:46:57;5.57;;;2.47;;
34697;SDS011;61391;50.922;6.928;2023-04-29T05:49:22;4.47;;;2.33;;
34697;SDS011;61391;50.922;6.928;2023-04-29T05:51:48;2.58;;;2.22;;
34697;SDS011;61391;50.922;6.928;2023-04-29T05:54:14;2.95;;;2.67;;
34697;SDS011;61391;50.922;6.928;2023-04-29T05:56:40;1.95;;;1.60;;
34697;SDS011;61391;50.922;6.928;2023-04-29T05:59:07;6.20;;;2.28;;
34697;SDS011;61391;50.922;6.928;2023-04-29T06:01:32;1.58;;;1.42;;
34697;SDS011;61391;50.922;6.928;2023-04-29T06:03:58;5.35;;;1.98;;
34697;SDS011;61391;50.922;6.928;2023-04-29T06:06:24;2.90;;;1.83;;
34697;SDS011;61391;50.922;6.928;2023-04-29T06:08:50;3.42;;;1.92;;
34697;SDS011;61391;50.922;6.928;2023-04-29T06:11:15;2.03;;;1.17;;
34697;SDS011;61391;50.922;6.928;2023-04-29T06:13:41;5.30;;;2.28;;
34697;SDS011;61391;50.922;6.928;2023-04-29T06:16:06;2.80;;;2.67;;
34697;SDS011;61391;50.922;6.928;2023-04-29T06:18:32;1.02;;;0.95;;
34697;SDS011;61391;50.922;6.928;2023-04-29T06:20:58;2.10;;;1.48;;
34697;SDS011;61391;50.922;6.928;2023-04-29T06:23:24;2.88;;;1.58;;
34697;SDS011;61391;50.922;6.928;2023-04-29T06:25:50;2.08;;;1.85;;
34697;SDS011;61391;50.922;6.928;2023-04-29T06:28:16;4.15;;;1.77;;
34697;SDS011;61391;50.922;6.928;2023-04-29T06:30:42;2.67;;;1.77;;
34697;SDS011;61391;50.922;6.928;2023-04-29T06:33:10;0.50;;;0.50;;
34697;SDS011;61391;50.922;6.928;2023-04-29T06:35:39;1.15;;;1.10;;
34697;SDS011;61391;50.922;6.928;2023-04-29T06:38:07;4.07;;;2.30;;
34697;SDS011;61391;50.922;6.928;2023-04-29T06:40:33;2.08;;;0.98;;
34697;SDS011;61391;50.922;6.928;2023-04-29T06:42:59;1.52;;;1.02;;
34697;SDS011;61391;50.922;6.928;2023-04-29T06:45:26;4.70;;;2.35;;
34697;SDS011;61391;50.922;6.928;2023-04-29T06:47:52;1.98;;;1.83;;
34697;SDS011;61391;50.922;6.928;2023-04-29T06:50:18;1.52;;;1.42;;
34697;SDS011;61391;50.922;6.928;2023-04-29T06:52:44;1.52;;;1.33;;
34697;SDS011;61391;50.922;6.928;2023-04-29T06:55:09;1.90;;;1.80;;
34697;SDS011;61391;50.922;6.928;2023-04-29T06:57:36;1.25;;;1.15;;
34697;SDS011;61391;50.922;6.928;2023-04-29T07:00:02;0.82;;;0.80;;
34697;SDS011;61391;50.922;6.928;2023-04-29T07:02:28;4.10;;;1.85;;
34697;SDS011;61391;50.922;6.928;2023-04-29T07:04:56;1.50;;;1.02;;
34697;SDS011;61391;50.922;6.928;2023-04-29T07:07:22;1.80;;;1.50;;
34697;SDS011;61391;50.922;6.928;2023-04-29T07:09:48;10.02;;;2.83;;
34697;SDS011;61391;50.922;6.928;2023-04-29T07:12:15;3.88;;;1.60;;
34697;SDS011;61391;50.922;6.928;2023-04-29T07:14:44;2.08;;;1.73;;
34697;SDS011;61391;50.922;6.928;2023-04-29T07:17:09;2.92;;;1.55;;
34697;SDS011;61391;50.922;6.928;2023-04-29T07:19:35;3.70;;;1.75;;
34697;SDS011;61391;50.922;6.928;2023-04-29T07:22:00;1.23;;;0.80;;
34697;SDS011;61391;50.922;6.928;2023-04-29T07:24:27;1.27;;;1.00;;
34697;SDS011;61391;50.922;6.928;2023-04-29T07:26:52;1.95;;;1.50;;
34697;SDS011;61391;50.922;6.928;2023-04-29T07:32:06;3.08;;;1.38;;
34697;SDS011;61391;50.922;6.928;2023-04-29T07:34:32;1.65;;;1.17;;
34697;SDS011;61391;50.922;6.928;2023-04-29T07:36:57;3.20;;;0.80;;
34697;SDS011;61391;50.922;6.928;2023-04-29T07:39:24;0.70;;;0.43;;
34697;SDS011;61391;50.922;6.928;2023-04-29T07:41:50;3.47;;;1.25;;
34697;SDS011;61391;50.922;6.928;2023-04-29T07:44:16;2.63;;;1.92;;
34697;SDS011;61391;50.922;6.928;2023-04-29T07:46:41;7.40;;;2.00;;
34697;SDS011;61391;50.922;6.928;2023-04-29T07:49:07;1.50;;;0.82;;
34697;SDS011;61391;50.922;6.928;2023-04-29T07:54:55;2.38;;;1.17;;
34697;SDS011;61391;50.922;6.928;2023-04-29T07:57:20;2.83;;;1.23;;
34697;SDS011;61391;50.922;6.928;2023-04-29T07:59:49;1.48;;;1.40;;
34697;SDS011;61391;50.922;6.928;2023-04-29T08:02:16;1.00;;;0.98;;
34697;SDS011;61391;50.922;6.928;2023-04-29T08:04:42;3.70;;;1.88;;
34697;SDS011;61391;50.922;6.928;2023-04-29T08:07:07;3.95;;;2.33;;
34697;SDS011;61391;50.922;6.928;2023-04-29T08:09:33;0.98;;;0.82;;
34697;SDS011;61391;50.922;6.928;2023-04-29T08:11:59;1.85;;;0.75;;
34697;SDS011;61391;50.922;6.928;2023-04-29T08:14:26;1.48;;;1.38;;
34697;SDS011;61391;50.922;6.928;2023-04-29T08:16:51;2.92;;;1.15;;
34697;SDS011;61391;50.922;6.928;2023-04-29T08:19:23;0.73;;;0.70;;
34697;SDS011;61391;50.922;6.928;2023-04-29T08:21:49;0.73;;;0.73;;
34697;SDS011;61391;50.922;6.928;2023-04-29T08:24:16;0.93;;;0.80;;
34697;SDS011;61391;50.922;6.928;2023-04-29T08:26:42;0.95;;;0.93;;
34697;SDS011;61391;50.922;6.928;2023-04-29T08:29:08;1.25;;;1.15;;
34697;SDS011;61391;50.922;6.928;2023-04-29T08:31:33;0.70;;;0.70;;
34697;SDS011;61391;50.922;6.928;2023-04-29T08:33:59;0.82;;;0.82;;
34697;SDS011;61391;50.922;6.928;2023-04-29T08:36:25;1.15;;;1.08;;
34697;SDS011;61391;50.922;6.928;2023-04-29T08:38:54;1.83;;;0.85;;
34697;SDS011;61391;50.922;6.928;2023-04-29T08:41:20;2.42;;;0.57;;
34697;SDS011;61391;50.922;6.928;2023-04-29T08:43:45;2.20;;;1.58;;
34697;SDS011;61391;50.922;6.928;2023-04-29T08:46:12;1.30;;;1.20;;
34697;SDS011;61391;50.922;6.928;2023-04-29T08:48:38;1.45;;;0.98;;
34697;SDS011;61391;50.922;6.928;2023-04-29T08:51:05;2.63;;;0.90;;
34697;SDS011;61391;50.922;6.928;2023-04-29T08:53:31;2.22;;;1.15;;
34697;SDS011;61391;50.922;6.928;2023-04-29T08:55:57;1.23;;;1.15;;
34697;SDS011;61391;50.922;6.928;2023-04-29T08:58:33;1.80;;;0.52;;
34697;SDS011;61391;50.922;6.928;2023-04-29T09:01:00;1.13;;;1.00;;
34697;SDS011;61391;50.922;6.928;2023-04-29T09:03:29;0.85;;;0.50;;
34697;SDS011;61391;50.922;6.928;2023-04-29T09:06:00;4.00;;;0.90;;
34697;SDS011;61391;50.922;6.928;2023-04-29T09:08:27;3.20;;;1.02;;
34697;SDS011;61391;50.922;6.928;2023-04-29T09:10:53;1.08;;;0.82;;
34697;SDS011;61391;50.922;6.928;2023-04-29T09:13:25;2.20;;;1.25;;
34697;SDS011;61391;50.922;6.928;2023-04-29T09:15:54;0.47;;;0.47;;
34697;SDS011;61391;50.922;6.928;2023-04-29T09:21:20;0.70;;;0.70;;
34697;SDS011;61391;50.922;6.928;2023-04-29T09:23:55;4.05;;;1.33;;
34697;SDS011;61391;50.922;6.928;2023-04-29T09:26:22;1.33;;;0.98;;
34697;SDS011;61391;50.922;6.928;2023-04-29T09:29:09;1.45;;;1.35;;
34697;SDS011;61391;50.922;6.928;2023-04-29T09:31:37;0.82;;;0.82;;
34697;SDS011;61391;50.922;6.928;2023-04-29T09:34:03;3.75;;;1.38;;
34697;SDS011;61391;50.922;6.928;2023-04-29T09:36:45;3.65;;;1.58;;
34697;SDS011;61391;50.922;6.928;2023-04-29T09:39:13;0.50;;;0.50;;
34697;SDS011;61391;50.922;6.928;2023-04-29T09:44:24;1.48;;;1.38;;
34697;SDS011;61391;50.922;6.928;2023-04-29T09:47:00;2.95;;;1.30;;
34697;SDS011;61391;50.922;6.928;2023-04-29T09:49:33;2.20;;;0.90;;
34697;SDS011;61391;50.922;6.928;2023-04-29T09:52:04;2.08;;;1.35;;
34697;SDS011;61391;50.922;6.928;2023-04-29T09:54:32;1.42;;;1.15;;
34697;SDS011;61391;50.922;6.928;2023-04-29T10:00:22;2.53;;;1.40;;
34697;SDS011;61391;50.922;6.928;2023-04-29T10:02:49;1.17;;;0.57;;
34697;SDS011;61391;50.922;6.928;2023-04-29T10:05:18;1.33;;;1.27;;
34697;SDS011;61391;50.922;6.928;2023-04-29T10:07:45;1.33;;;1.23;;
34697;SDS011;61391;50.922;6.928;2023-04-29T10:10:15;1.73;;;1.23;;
34697;SDS011;61391;50.922;6.928;2023-04-29T10:12:41;6.43;;;1.45;;
34697;SDS011;61391;50.922;6.928;2023-04-29T10:21:16;2.92;;;1.85;;
34697;SDS011;61391;50.922;6.928;2023-04-29T10:23:46;1.80;;;1.30;;
34697;SDS011;61391;50.922;6.928;2023-04-29T10:26:12;3.08;;;1.30;;
34697;SDS011;61391;50.922;6.928;2023-04-29T10:28:40;1.42;;;0.73;;
34697;SDS011;61391;50.922;6.928;2023-04-29T10:34:08;1.73;;;0.80;;
34697;SDS011;61391;50.922;6.928;2023-04-29T10:36:36;1.33;;;1.23;;
34697;SDS011;61391;50.922;6.928;2023-04-29T10:39:02;1.55;;;1.45;;
34697;SDS011;61391;50.922;6.928;2023-04-29T10:41:34;1.25;;;0.50;;
34697;SDS011;61391;50.922;6.928;2023-04-29T10:44:06;0.80;;;0.80;;
34697;SDS011;61391;50.922;6.928;2023-04-29T10:46:32;1.17;;;1.08;;
34697;SDS011;61391;50.922;6.928;2023-04-29T10:49:01;0.60;;;0.60;;
34697;SDS011;61391;50.922;6.928;2023-04-29T10:51:29;1.13;;;0.93;;
34697;SDS011;61391;50.922;6.928;2023-04-29T10:57:27;0.75;;;0.75;;
34697;SDS011;61391;50.922;6.928;2023-04-29T10:59:54;1.58;;;1.33;;
34697;SDS011;61391;50.922;6.928;2023-04-29T11:08:32;4.55;;;1.50;;
34697;SDS011;61391;50.922;6.928;2023-04-29T11:11:04;2.17;;;1.88;;
34697;SDS011;61391;50.922;6.928;2023-04-29T11:13:31;1.90;;;1.80;;
34697;SDS011;61391;50.922;6.928;2023-04-29T11:16:08;3.22;;;1.80;;
34697;SDS011;61391;50.922;6.928;2023-04-29T11:18:35;3.40;;;1.83;;
34697;SDS011;61391;50.922;6.928;2023-04-29T11:21:22;2.50;;;1.95;;
34697;SDS011;61391;50.922;6.928;2023-04-29T11:23:57;2.47;;;1.05;;
34697;SDS011;61391;50.922;6.928;2023-04-29T11:26:23;5.32;;;3.22;;
34697;SDS011;61391;50.922;6.928;2023-04-29T11:28:49;4.47;;;3.75;;
34697;SDS011;61391;50.922;6.928;2023-04-29T11:31:16;8.18;;;3.50;;
34697;SDS011;61391;50.922;6.928;2023-04-29T11:37:04;8.35;;;3.50;;
34697;SDS011;61391;50.922;6.928;2023-04-29T11:39:32;6.53;;;2.75;;
34697;SDS011;61391;50.922;6.928;2023-04-29T11:42:04;2.83;;;2.08;;
34697;SDS011;61391;50.922;6.928;2023-04-29T11:44:34;4.13;;;2.75;;
34697;SDS011;61391;50.922;6.928;2023-04-29T11:47:03;8.48;;;4.07;;
34697;SDS011;61391;50.922;6.928;2023-04-29T11:49:30;2.90;;;2.65;;
34697;SDS011;61391;50.922;6.928;2023-04-29T11:51:57;4.13;;;3.65;;
34697;SDS011;61391;50.922;6.928;2023-04-29T11:54:24;2.95;;;2.08;;
34697;SDS011;61391;50.922;6.928;2023-04-29T11:56:52;6.88;;;3.05;;
34697;SDS011;61391;50.922;6.928;2023-04-29T11:59:19;6.43;;;4.53;;
34697;SDS011;61391;50.922;6.928;2023-04-29T12:01:45;8.23;;;3.38;;
34697;SDS011;61391;50.922;6.928;2023-04-29T12:04:11;11.05;;;4.93;;
34697;SDS011;61391;50.922;6.928;2023-04-29T12:06:36;4.75;;;3.67;;
34697;SDS011;61391;50.922;6.928;2023-04-29T12:09:02;6.95;;;5.03;;
34697;SDS011;61391;50.922;6.928;2023-04-29T12:11:28;5.65;;;3.28;;
34697;SDS011;61391;50.922;6.928;2023-04-29T12:13:54;8.90;;;5.43;;
34697;SDS011;61391;50.922;6.928;2023-04-29T12:16:30;7.95;;;3.92;;
34697;SDS011;61391;50.922;6.928;2023-04-29T12:18:57;5.43;;;3.65;;
34697;SDS011;61391;50.922;6.928;2023-04-29T12:21:24;9.23;;;5.13;;
34697;SDS011;61391;50.922;6.928;2023-04-29T12:23:50;6.05;;;3.90;;
34697;SDS011;61391;50.922;6.928;2023-04-29T12:26:17;11.32;;;3.13;;
34697;SDS011;61391;50.922;6.928;2023-04-29T12:28:45;7.03;;;5.03;;
34697;SDS011;61391;50.922;6.928;2023-04-29T12:31:13;2.47;;;2.28;;
34697;SDS011;61391;50.922;6.928;2023-04-29T12:33:41;6.95;;;4.22;;
34697;SDS011;61391;50.922;6.928;2023-04-29T12:36:16;9.15;;;4.68;;
34697;SDS011;61391;50.922;6.928;2023-04-29T12:38:43;4.63;;;2.45;;
34697;SDS011;61391;50.922;6.928;2023-04-29T12:44:00;4.82;;;2.25;;
34697;SDS011;61391;50.922;6.928;2023-04-29T12:46:28;3.35;;;2.40;;
34697;SDS011;61391;50.922;6.928;2023-04-29T12:49:00;3.45;;;2.47;;
34697;SDS011;61391;50.922;6.928;2023-04-29T12:51:28;3.58;;;2.53;;
34697;SDS011;61391;50.922;6.928;2023-04-29T12:54:00;4.60;;;2.72;;
34697;SDS011;61391;50.922;6.928;2023-04-29T12:56:28;2.40;;;2.20;;
34697;SDS011;61391;50.922;6.928;2023-04-29T12:58:55;4.90;;;2.97;;
34697;SDS011;61391;50.922;6.928;2023-04-29T13:01:20;6.45;;;2.72;;
34697;SDS011;61391;50.922;6.928;2023-04-29T13:03:46;2.28;;;1.60;;
34697;SDS011;61391;50.922;6.928;2023-04-29T13:06:13;8.05;;;3.10;;
34697;SDS011;61391;50.922;6.928;2023-04-29T13:08:39;5.90;;;3.33;;
34697;SDS011;61391;50.922;6.928;2023-04-29T13:11:05;2.53;;;2.15;;
34697;SDS011;61391;50.922;6.928;2023-04-29T13:13:31;2.55;;;2.22;;
34697;SDS011;61391;50.922;6.928;2023-04-29T13:15:57;4.10;;;2.47;;
34697;SDS011;61391;50.922;6.928;2023-04-29T13:18:22;4.50;;;2.10;;
34697;SDS011;61391;50.922;6.928;2023-04-29T13:20:48;3.42;;;1.35;;
34697;SDS011;61391;50.922;6.928;2023-04-29T13:23:29;2.22;;;1.88;;
34697;SDS011;61391;50.922;6.928;2023-04-29T13:25:55;1.77;;;0.98;;
34697;SDS011;61391;50.922;6.928;2023-04-29T13:28:21;2.65;;;1.65;;
34697;SDS011;61391;50.922;6.928;2023-04-29T13:30:47;4.70;;;2.33;;
34697;SDS011;61391;50.922;6.928;2023-04-29T13:33:14;4.60;;;1.63;;
34697;SDS011;61391;50.922;6.928;2023-04-29T13:35:40;3.80;;;2.55;;
34697;SDS011;61391;50.922;6.928;2023-04-29T13:38:06;1.33;;;0.93;;
34697;SDS011;61391;50.922;6.928;2023-04-29T13:40:32;2.95;;;1.67;;
34697;SDS011;61391;50.922;6.928;2023-04-29T13:42:58;3.10;;;1.75;;
34697;SDS011;61391;50.922;6.928;2023-04-29T13:48:48;4.00;;;1.92;;
34697;SDS011;61391;50.922;6.928;2023-04-29T13:57:48;1.80;;;1.48;;
34697;SDS011;61391;50.922;6.928;2023-04-29T14:07:09;2.15;;;1.83;;
34697;SDS011;61391;50.922;6.928;2023-04-29T14:09:42;2.95;;;2.05;;
34697;SDS011;61391;50.922;6.928;2023-04-29T14:14:33;1.27;;;1.17;;
34697;SDS011;61391;50.922;6.928;2023-04-29T14:17:03;1.30;;;1.23;;
34697;SDS011;61391;50.922;6.928;2023-04-29T14:19:28;2.25;;;1.83;;
34697;SDS011;61391;50.922;6.928;2023-04-29T14:21:54;1.70;;;1.48;;
34697;SDS011;61391;50.922;6.928;2023-04-29T14:24:20;1.20;;;1.08;;
34697;SDS011;61391;50.922;6.928;2023-04-29T14:26:46;1.50;;;1.40;;
34697;SDS011;61391;50.922;6.928;2023-04-29T14:32:34;3.67;;;1.92;;
34697;SDS011;61391;50.922;6.928;2023-04-29T14:34:59;3.05;;;2.10;;
34697;SDS011;61391;50.922;6.928;2023-04-29T14:37:25;1.08;;;1.05;;
34697;SDS011;61391;50.922;6.928;2023-04-29T14:39:51;1.13;;;0.90;;
34697;SDS011;61391;50.922;6.928;2023-04-29T14:42:16;0.70;;;0.70;;
34697;SDS011;61391;50.922;6.928;2023-04-29T14:44:42;1.80;;;1.17;;
34697;SDS011;61391;50.922;6.928;2023-04-29T14:47:08;3.65;;;1.65;;
34697;SDS011;61391;50.922;6.928;2023-04-29T14:49:34;2.15;;;1.92;;
34697;SDS011;61391;50.922;6.928;2023-04-29T14:51:59;2.88;;;1.38;;
34697;SDS011;61391;50.922;6.928;2023-04-29T14:54:25;1.63;;;1.52;;
34697;SDS011;61391;50.922;6.928;2023-04-29T14:56:51;2.92;;;1.83;;
34697;SDS011;61391;50.922;6.928;2023-04-29T14:59:17;3.13;;;1.70;;
34697;SDS011;61391;50.922;6.928;2023-04-29T15:01:43;2.88;;;1.67;;
34697;SDS011;61391;50.922;6.928;2023-04-29T15:04:09;2.20;;;1.08;;
34697;SDS011;61391;50.922;6.928;2023-04-29T15:06:36;4.25;;;1.75;;
34697;SDS011;61391;50.922;6.928;2023-04-29T15:09:02;4.97;;;1.55;;
34697;SDS011;61391;50.922;6.928;2023-04-29T15:11:29;2.45;;;1.75;;
34697;SDS011;61391;50.922;6.928;2023-04-29T15:13:59;1.45;;;1.35;;
34697;SDS011;61391;50.922;6.928;2023-04-29T15:16:24;3.70;;;1.10;;
34697;SDS011;61391;50.922;6.928;2023-04-29T15:18:52;2.97;;;1.08;;
34697;SDS011;61391;50.922;6.928;2023-04-29T15:21:18;1.70;;;1.38;;
34697;SDS011;61391;50.922;6.928;2023-04-29T15:23:43;2.08;;;1.30;;
34697;SDS011;61391;50.922;6.928;2023-04-29T15:26:09;2.78;;;1.23;;
34697;SDS011;61391;50.922;6.928;2023-04-29T15:28:35;1.55;;;1.45;;
34697;SDS011;61391;50.922;6.928;2023-04-29T15:31:01;2.67;;;2.33;;
34697;SDS011;61391;50.922;6.928;2023-04-29T15:33:30;0.93;;;0.93;;
34697;SDS011;61391;50.922;6.928;2023-04-29T15:35:57;2.83;;;1.95;;
34697;SDS011;61391;50.922;6.928;2023-04-29T15:38:23;0.63;;;0.63;;
34697;SDS011;61391;50.922;6.928;2023-04-29T15:40:48;4.82;;;1.70;;
34697;SDS011;61391;50.922;6.928;2023-04-29T15:43:14;2.15;;;0.93;;
34697;SDS011;61391;50.922;6.928;2023-04-29T15:45:39;2.40;;;1.60;;
34697;SDS011;61391;50.922;6.928;2023-04-29T15:48:06;2.70;;;1.30;;
34697;SDS011;61391;50.922;6.928;2023-04-29T15:50:31;4.75;;;1.80;;
34697;SDS011;61391;50.922;6.928;2023-04-29T15:59:41;2.75;;;1.67;;
34697;SDS011;61391;50.922;6.928;2023-04-29T16:02:07;4.70;;;2.08;;
34697;SDS011;61391;50.922;6.928;2023-04-29T16:04:45;3.65;;;1.95;;
34697;SDS011;61391;50.922;6.928;2023-04-29T16:07:10;2.25;;;1.00;;
34697;SDS011;61391;50.922;6.928;2023-04-29T16:09:36;4.80;;;2.35;;
34697;SDS011;61391;50.922;6.928;2023-04-29T16:12:02;2.30;;;2.10;;
34697;SDS011;61391;50.922;6.928;2023-04-29T16:14:27;3.22;;;1.70;;
34697;SDS011;61391;50.922;6.928;2023-04-29T16:17:08;2.90;;;2.33;;